Time;durP1;ratioP1;P1;durP2;ratioP2;P2;SDS_P1;SDS_P2;PMS_P1;PMS_P2;Temp;Humidity;BMP_temperature;BMP_pressure;BME280_temperature;BME280_humidity;BME280_pressure;Samples;Min_cycle;Max_cycle;Signal;HPM_P1;HPM_P2
2022/02/13 00:01:38;;;;;;;;;;;9.30;99.30;;;;;;5091063;28;19915;-73
2022/02/13 00:04:04;;;;;;;;;;;9.30;99.40;;;;;;5091513;28;20286;-73
2022/02/13 00:06:30;;;;;;;;;;;9.30;99.50;;;;;;5091503;28;19916;-73
2022/02/13 00:08:55;;;;;;;;;;;9.30;99.50;;;;;;5091600;28;19908;-74
2022/02/13 00:11:21;;;;;;;;;;;9.30;99.50;;;;;;5091711;28;19923;-73
2022/02/13 00:13:47;;;;;;;;;;;9.30;99.60;;;;;;5090075;28;20346;-73
2022/02/13 00:16:13;;;;;;;;;;;9.30;99.60;;;;;;5090052;28;19912;-74
2022/02/13 00:18:38;;;;;;;;;;;9.30;99.70;;;;;;5091513;28;19919;-72
2022/02/13 00:21:04;;;;;;;;;;;9.30;99.70;;;;;;5091287;28;20241;-73
2022/02/13 00:23:30;;;;;;;;;;;9.30;99.70;;;;;;5091229;28;19962;-72
2022/02/13 00:25:55;;;;;;;;;;;9.40;99.80;;;;;;5090993;28;19954;-73
2022/02/13 00:28:21;;;;;;;;;;;9.30;99.80;;;;;;5091141;28;19915;-73
2022/02/13 00:30:46;;;;;;;;;;;9.30;99.90;;;;;;5090827;28;20267;-72
2022/02/13 00:33:15;;;;;;;;;;;9.40;99.90;;;;;;5091168;28;19912;-73
2022/02/13 00:35:41;;;;;;;;;;;9.40;99.90;;;;;;5090957;28;20381;-72
2022/02/13 00:38:08;;;;;;;;;;;9.40;99.90;;;;;;5089663;28;19909;-73
2022/02/13 00:40:33;;;;;;;;;;;9.40;99.80;;;;;;5091129;28;19926;-73
2022/02/13 00:42:59;;;;;;;;;;;9.40;99.90;;;;;;5091015;28;19908;-73
2022/02/13 00:45:25;;;;;;;;;;;9.40;99.90;;;;;;5090829;28;19916;-73
2022/02/13 00:47:50;;;;;;;;;;;9.40;99.90;;;;;;5090833;28;19916;-72
2022/02/13 00:50:16;;;;;;;;;;;9.50;99.80;;;;;;5090822;28;19916;-73
2022/02/13 00:52:41;;;;;;;;;;;9.40;99.80;;;;;;5090889;28;19919;-72
2022/02/13 00:55:07;;;;;;;;;;;9.40;99.70;;;;;;5091033;28;20266;-73
2022/02/13 00:57:33;;;;;;;;;;;9.40;99.70;;;;;;5090761;28;19922;-73
2022/02/13 00:59:58;;;;;;;;;;;9.40;99.70;;;;;;5090610;28;19912;-73
2022/02/13 01:02:24;;;;;;;;;;;9.50;99.70;;;;;;5089164;28;19912;-75
2022/02/13 01:04:50;;;;;;;;;;;9.50;99.70;;;;;;5089947;28;19931;-73
2022/02/13 01:07:15;;;;;;;;;;;9.50;99.70;;;;;;5090422;28;19922;-73
2022/02/13 01:09:41;;;;;;;;;;;9.40;99.70;;;;;;5090392;28;19920;-74
2022/02/13 01:12:07;;;;;;;;;;;9.40;99.70;;;;;;5090415;28;19973;-74
2022/02/13 01:14:32;;;;;;;;;;;9.40;99.80;;;;;;5090367;28;19908;-71
2022/02/13 01:16:58;;;;;;;;;;;9.40;99.80;;;;;;5090079;28;20007;-72
2022/02/13 01:19:23;;;;;;;;;;;9.40;99.80;;;;;;5090257;28;19916;-71
2022/02/13 01:21:49;;;;;;;;;;;9.40;99.80;;;;;;5090237;28;20438;-71
2022/02/13 01:24:15;;;;;;;;;;;9.40;99.80;;;;;;5090104;28;19912;-71
2022/02/13 01:26:40;;;;;;;;;;;9.40;99.70;;;;;;5090134;28;20228;-72
2022/02/13 01:29:06;;;;;;;;;;;9.40;99.70;;;;;;5088779;28;19946;-71
2022/02/13 01:31:34;;;;;;;;;;;9.40;99.80;;;;;;5089628;28;20011;-71
2022/02/13 01:33:59;;;;;;;;;;;9.50;99.70;;;;;;5088690;28;20186;-72
2022/02/13 01:36:25;;;;;;;;;;;9.40;99.70;;;;;;5089732;28;19920;-71
2022/02/13 01:38:50;;;;;;;;;;;9.40;99.70;;;;;;5089692;28;20422;-73
2022/02/13 01:41:17;;;;;;;;;;;9.40;99.70;;;;;;5089842;28;20299;-72
2022/02/13 01:43:43;;;;;;;;;;;9.40;99.70;;;;;;5089853;28;19908;-72
2022/02/13 01:46:09;;;;;;;;;;;9.50;99.70;;;;;;5089701;28;19909;-74
2022/02/13 01:48:35;;;;;;;;;;;9.50;99.70;;;;;;5088458;28;19944;-72
2022/02/13 01:51:00;;;;;;;;;;;9.50;99.60;;;;;;5089691;28;20378;-74
2022/02/13 01:53:26;;;;;;;;;;;9.50;99.60;;;;;;5089706;28;20371;-72
2022/02/13 01:55:52;;;;;;;;;;;9.50;99.60;;;;;;5089568;28;20213;-72
2022/02/13 01:58:17;;;;;;;;;;;9.50;99.60;;;;;;5089570;28;19912;-73
2022/02/13 02:00:43;;;;;;;;;;;9.50;99.60;;;;;;5089163;28;19919;-73
2022/02/13 02:03:09;;;;;;;;;;;9.50;99.70;;;;;;5089433;28;20008;-73
2022/02/13 02:05:34;;;;;;;;;;;9.50;99.70;;;;;;5089593;28;20283;-73
2022/02/13 02:08:00;;;;;;;;;;;9.50;99.70;;;;;;5087984;28;19929;-74
2022/02/13 02:10:25;;;;;;;;;;;9.50;99.70;;;;;;5089157;28;19926;-74
2022/02/13 02:12:51;;;;;;;;;;;9.50;99.70;;;;;;5089303;28;20313;-72
2022/02/13 02:15:17;;;;;;;;;;;9.50;99.60;;;;;;5087767;28;20359;-73
2022/02/13 02:17:43;;;;;;;;;;;9.60;99.60;;;;;;5088397;28;19994;-72
2022/02/13 02:20:09;;;;;;;;;;;9.60;99.60;;;;;;5089143;28;19979;-70
2022/02/13 02:22:34;;;;;;;;;;;9.50;99.60;;;;;;5089140;28;20304;-72
2022/02/13 02:25:00;;;;;;;;;;;9.60;99.60;;;;;;5089326;28;19912;-72
2022/02/13 02:27:25;;;;;;;;;;;9.60;99.60;;;;;;5089115;28;20365;-72
2022/02/13 02:29:51;;;;;;;;;;;9.60;99.60;;;;;;5088717;28;19924;-72
2022/02/13 02:32:16;;;;;;;;;;;9.60;99.50;;;;;;5088995;28;19912;-72
2022/02/13 02:34:42;;;;;;;;;;;9.60;99.50;;;;;;5088983;28;20007;-73
2022/02/13 02:37:09;;;;;;;;;;;9.60;99.50;;;;;;5088840;28;19919;-73
2022/02/13 02:39:35;;;;;;;;;;;9.60;99.50;;;;;;5088966;28;19908;-72
2022/02/13 02:42:01;;;;;;;;;;;9.60;99.50;;;;;;5088751;28;19943;-73
2022/02/13 02:44:27;;;;;;;;;;;9.60;99.50;;;;;;5088767;28;19915;-72
2022/02/13 02:46:52;;;;;;;;;;;9.70;99.50;;;;;;5088599;28;19912;-73
2022/02/13 02:49:18;;;;;;;;;;;9.70;99.50;;;;;;5087159;28;20286;-73
2022/02/13 02:51:43;;;;;;;;;;;9.70;99.50;;;;;;5087239;28;19920;-72
2022/02/13 02:54:09;;;;;;;;;;;9.70;99.50;;;;;;5088626;28;19915;-73
2022/02/13 02:56:34;;;;;;;;;;;9.70;99.50;;;;;;5088526;28;20354;-72
2022/02/13 02:59:00;;;;;;;;;;;9.80;99.40;;;;;;5086985;28;20106;-73
2022/02/13 03:01:26;;;;;;;;;;;9.80;99.50;;;;;;5088545;28;19923;-73
2022/02/13 03:03:51;;;;;;;;;;;9.90;99.40;;;;;;5088545;28;19943;-73
2022/02/13 03:06:17;;;;;;;;;;;9.90;99.40;;;;;;5087057;28;20373;-73
2022/02/13 03:08:42;;;;;;;;;;;10.00;99.50;;;;;;5086720;28;19917;-72
2022/02/13 03:11:09;;;;;;;;;;;10.00;99.40;;;;;;5087621;28;20393;-73
2022/02/13 03:13:35;;;;;;;;;;;10.00;99.40;;;;;;5087458;28;19912;-73
2022/02/13 03:16:00;;;;;;;;;;;10.00;99.30;;;;;;5087303;28;19931;-72
2022/02/13 03:18:26;;;;;;;;;;;10.10;99.30;;;;;;5087463;28;20342;-73
2022/02/13 03:20:52;;;;;;;;;;;10.10;99.20;;;;;;5087285;28;19936;-72
2022/02/13 03:23:18;;;;;;;;;;;10.10;99.20;;;;;;5087907;28;19908;-72
2022/02/13 03:25:44;;;;;;;;;;;10.10;99.20;;;;;;5087953;28;19912;-73
2022/02/13 03:28:09;;;;;;;;;;;10.10;99.20;;;;;;5088342;28;20045;-73
2022/02/13 03:30:35;;;;;;;;;;;10.10;99.20;;;;;;5087897;28;20003;-73
2022/02/13 03:33:01;;;;;;;;;;;10.10;99.20;;;;;;5088026;28;20387;-72
2022/02/13 03:35:27;;;;;;;;;;;10.10;99.20;;;;;;5086665;28;20007;-72
2022/02/13 03:37:52;;;;;;;;;;;10.10;99.20;;;;;;5088063;28;20093;-73
2022/02/13 03:40:18;;;;;;;;;;;10.10;99.20;;;;;;5088002;28;19908;-73
2022/02/13 03:42:43;;;;;;;;;;;10.10;99.20;;;;;;5088463;28;20033;-73
2022/02/13 03:45:10;;;;;;;;;;;10.10;99.10;;;;;;5087919;28;20354;-73
2022/02/13 03:47:35;;;;;;;;;;;10.00;99.10;;;;;;5088290;28;19916;-73
2022/02/13 03:50:01;;;;;;;;;;;9.80;99.20;;;;;;5087861;28;20366;-73
2022/02/13 03:52:27;;;;;;;;;;;9.70;99.20;;;;;;5087938;28;19912;-73
2022/02/13 03:54:53;;;;;;;;;;;9.60;99.30;;;;;;5087899;28;19912;-73
2022/02/13 03:57:18;;;;;;;;;;;9.60;99.40;;;;;;5087700;28;19912;-73
2022/02/13 03:59:44;;;;;;;;;;;9.50;99.40;;;;;;5087799;28;19917;-73
2022/02/13 04:02:09;;;;;;;;;;;9.50;99.60;;;;;;5087398;28;19994;-73
2022/02/13 04:04:35;;;;;;;;;;;9.50;99.70;;;;;;5086196;28;20003;-74
2022/02/13 04:07:00;;;;;;;;;;;9.50;99.70;;;;;;5087579;28;19926;-73
2022/02/13 04:09:26;;;;;;;;;;;9.50;99.70;;;;;;5087721;28;19915;-72
2022/02/13 04:11:51;;;;;;;;;;;9.50;99.90;;;;;;5087764;28;19920;-72
2022/02/13 04:14:17;;;;;;;;;;;9.50;99.80;;;;;;5088096;28;19912;-73
2022/02/13 04:16:43;;;;;;;;;;;9.50;99.80;;;;;;5087555;28;19935;-73
2022/02/13 04:19:08;;;;;;;;;;;9.50;99.80;;;;;;5087481;28;20289;-72
2022/02/13 04:21:34;;;;;;;;;;;9.40;99.80;;;;;;5087289;28;19909;-73
2022/02/13 04:23:59;;;;;;;;;;;9.40;99.70;;;;;;5087496;28;19973;-73
2022/02/13 04:26:25;;;;;;;;;;;9.40;99.70;;;;;;5086316;28;19919;-74
2022/02/13 04:28:50;;;;;;;;;;;9.40;99.80;;;;;;5087485;28;20301;-72
2022/02/13 04:31:16;;;;;;;;;;;9.30;99.80;;;;;;5087346;28;19996;-72
2022/02/13 04:33:42;;;;;;;;;;;9.30;99.90;;;;;;5087518;28;19919;-74
2022/02/13 04:36:08;;;;;;;;;;;9.30;99.90;;;;;;5086242;28;19912;-72
2022/02/13 04:38:34;;;;;;;;;;;9.30;99.90;;;;;;5087454;28;19912;-72
2022/02/13 04:41:00;;;;;;;;;;;9.30;99.80;;;;;;5090336;28;19923;-73
2022/02/13 04:43:27;;;;;;;;;;;9.30;99.80;;;;;;5089794;28;19957;-73
2022/02/13 04:45:52;;;;;;;;;;;9.30;99.80;;;;;;5089731;28;19919;-73
2022/02/13 04:48:18;;;;;;;;;;;9.30;99.90;;;;;;5091120;28;19995;-72
2022/02/13 04:50:43;;;;;;;;;;;9.30;99.80;;;;;;5091086;28;20322;-72
2022/02/13 04:53:09;;;;;;;;;;;9.30;99.80;;;;;;5089800;28;20262;-72
2022/02/13 04:55:35;;;;;;;;;;;9.30;99.80;;;;;;5090861;28;19919;-72
2022/02/13 04:58:02;;;;;;;;;;;9.30;99.80;;;;;;5090786;28;20368;-72
2022/02/13 05:00:28;;;;;;;;;;;9.30;99.90;;;;;;5090769;28;19974;-72
2022/02/13 05:02:53;;;;;;;;;;;9.20;99.90;;;;;;5090674;28;19913;-72
2022/02/13 05:05:19;;;;;;;;;;;9.20;99.90;;;;;;5090646;28;19915;-73
2022/02/13 05:07:44;;;;;;;;;;;9.10;99.90;;;;;;5090485;28;19912;-72
2022/02/13 05:10:11;;;;;;;;;;;9.10;99.90;;;;;;5090443;28;19923;-72
2022/02/13 05:12:36;;;;;;;;;;;9.00;99.90;;;;;;5090441;28;19919;-72
2022/02/13 05:15:02;;;;;;;;;;;9.00;99.90;;;;;;5090393;28;20350;-73
2022/02/13 05:17:28;;;;;;;;;;;8.90;99.90;;;;;;5090425;28;19916;-72
2022/02/13 05:19:53;;;;;;;;;;;8.90;99.90;;;;;;5090418;28;19912;-72
2022/02/13 05:22:19;;;;;;;;;;;8.90;99.90;;;;;;5090338;28;19947;-72
2022/02/13 05:24:45;;;;;;;;;;;9.00;99.90;;;;;;5090219;28;19912;-72
2022/02/13 05:27:12;;;;;;;;;;;8.90;99.90;;;;;;5090219;28;20418;-73
2022/02/13 05:29:37;;;;;;;;;;;8.90;99.90;;;;;;5090002;28;19962;-72
2022/02/13 05:32:05;;;;;;;;;;;8.90;99.90;;;;;;5089546;28;20484;-72
2022/02/13 05:34:31;;;;;;;;;;;8.90;99.90;;;;;;5088839;28;20346;-73
2022/02/13 05:36:56;;;;;;;;;;;8.80;99.90;;;;;;5089992;28;19912;-72
2022/02/13 05:39:22;;;;;;;;;;;8.90;99.90;;;;;;5071741;28;20011;-73
2022/02/13 05:41:48;;;;;;;;;;;8.90;99.90;;;;;;5089716;28;20328;-73
2022/02/13 05:44:13;;;;;;;;;;;9.00;99.90;;;;;;5090100;28;19916;-73
2022/02/13 05:46:39;;;;;;;;;;;9.00;99.90;;;;;;5089943;28;19913;-72
2022/02/13 05:49:05;;;;;;;;;;;9.00;99.90;;;;;;5090092;28;19969;-73
2022/02/13 05:51:30;;;;;;;;;;;8.90;99.90;;;;;;5089621;28;19918;-73
2022/02/13 05:53:56;;;;;;;;;;;9.00;99.90;;;;;;5089692;28;19919;-72
2022/02/13 05:56:22;;;;;;;;;;;9.00;99.90;;;;;;5089610;28;19965;-74
2022/02/13 05:58:48;;;;;;;;;;;9.00;99.90;;;;;;5089546;28;19955;-73
2022/02/13 06:01:14;;;;;;;;;;;8.90;99.90;;;;;;5089568;28;20009;-72
2022/02/13 06:03:40;;;;;;;;;;;8.90;99.90;;;;;;5089614;28;19912;-72
2022/02/13 06:06:06;;;;;;;;;;;9.00;99.90;;;;;;5089477;28;19915;-72
2022/02/13 06:08:31;;;;;;;;;;;9.00;99.90;;;;;;5089979;28;19935;-74
2022/02/13 06:10:57;;;;;;;;;;;9.00;99.90;;;;;;5089287;28;19916;-73
2022/02/13 06:13:23;;;;;;;;;;;9.00;99.90;;;;;;5089393;28;19912;-72
2022/02/13 06:15:48;;;;;;;;;;;9.00;99.90;;;;;;5089096;28;19920;-73
2022/02/13 06:18:14;;;;;;;;;;;9.10;99.90;;;;;;5089191;28;19908;-73
2022/02/13 06:20:43;;;;;;;;;;;9.20;99.90;;;;;;5089243;28;19959;-73
2022/02/13 06:23:08;;;;;;;;;;;9.20;99.90;;;;;;5089239;28;19996;-72
2022/02/13 06:25:34;;;;;;;;;;;9.20;99.90;;;;;;5089462;28;19960;-73
2022/02/13 06:28:00;;;;;;;;;;;9.30;99.90;;;;;;5088002;28;19916;-72
2022/02/13 06:30:26;;;;;;;;;;;9.20;99.90;;;;;;5088851;28;19920;-72
2022/02/13 06:32:52;;;;;;;;;;;9.20;99.90;;;;;;5089012;28;19916;-72
2022/02/13 06:35:18;;;;;;;;;;;9.20;99.90;;;;;;5088875;28;20263;-73
2022/02/13 06:37:43;;;;;;;;;;;9.20;99.90;;;;;;5087646;28;20254;-73
2022/02/13 06:40:09;;;;;;;;;;;9.30;99.90;;;;;;5088926;28;19918;-73
2022/02/13 06:42:36;;;;;;;;;;;9.30;99.90;;;;;;5088815;28;20386;-72
2022/02/13 06:45:01;;;;;;;;;;;9.40;99.90;;;;;;5088630;28;20273;-72
2022/02/13 06:47:27;;;;;;;;;;;9.40;99.90;;;;;;5088759;28;19912;-74
2022/02/13 06:49:53;;;;;;;;;;;9.50;99.90;;;;;;5088648;28;20333;-72
2022/02/13 06:52:18;;;;;;;;;;;9.60;99.90;;;;;;5088634;28;19912;-73
2022/02/13 06:54:44;;;;;;;;;;;9.60;99.90;;;;;;5088669;28;19916;-72
2022/02/13 06:57:09;;;;;;;;;;;9.50;99.90;;;;;;5088434;28;19912;-72
2022/02/13 06:59:35;;;;;;;;;;;9.50;99.90;;;;;;5088603;28;20326;-72
2022/02/13 07:02:00;;;;;;;;;;;9.40;99.90;;;;;;5088157;28;19908;-72
2022/02/13 07:04:26;;;;;;;;;;;9.50;99.90;;;;;;5088471;28;20285;-73
2022/02/13 07:06:52;;;;;;;;;;;9.50;99.90;;;;;;5088367;28;19916;-72
2022/02/13 07:09:18;;;;;;;;;;;9.50;99.90;;;;;;5088382;28;20308;-73
2022/02/13 07:11:44;;;;;;;;;;;9.60;99.90;;;;;;5088277;28;19927;-73
2022/02/13 07:14:09;;;;;;;;;;;9.60;99.90;;;;;;5088296;28;20351;-73
2022/02/13 07:16:35;;;;;;;;;;;9.60;99.90;;;;;;5088193;28;19953;-71
2022/02/13 07:19:00;;;;;;;;;;;9.50;99.90;;;;;;5088449;28;19909;-72
2022/02/13 07:21:26;;;;;;;;;;;9.50;99.90;;;;;;5088221;28;19977;-73
2022/02/13 07:23:51;;;;;;;;;;;9.50;99.90;;;;;;5088043;28;20370;-72
2022/02/13 07:26:17;;;;;;;;;;;9.40;99.90;;;;;;5088070;28;19919;-71
2022/02/13 07:29:01;;;;;;;;;;;9.40;99.90;;;;;;5088110;28;20011;-72
2022/02/13 07:31:27;;;;;;;;;;;9.30;99.90;;;;;;5087809;28;19931;-72
2022/02/13 07:33:52;;;;;;;;;;;9.30;99.90;;;;;;5088152;28;19912;-71
2022/02/13 07:36:18;;;;;;;;;;;9.30;99.90;;;;;;5087835;28;19938;-72
2022/02/13 07:38:44;;;;;;;;;;;9.20;99.90;;;;;;5088059;28;19916;-71
2022/02/13 07:41:09;;;;;;;;;;;9.20;99.90;;;;;;5087747;28;19908;-72
2022/02/13 07:43:35;;;;;;;;;;;9.20;99.90;;;;;;5086649;28;19916;-72
2022/02/13 07:46:01;;;;;;;;;;;9.10;99.90;;;;;;5087772;28;19979;-72
2022/02/13 07:48:26;;;;;;;;;;;9.10;99.90;;;;;;5086951;28;19969;-72
2022/02/13 07:50:52;;;;;;;;;;;9.10;99.90;;;;;;5086443;28;19916;-73
2022/02/13 07:53:18;;;;;;;;;;;9.10;99.90;;;;;;5087832;28;19912;-71
2022/02/13 07:55:43;;;;;;;;;;;9.10;99.90;;;;;;5087856;28;19917;-71
2022/02/13 07:58:10;;;;;;;;;;;9.10;99.90;;;;;;5087976;28;19908;-72
2022/02/13 08:00:35;;;;;;;;;;;9.10;99.90;;;;;;5087867;28;20256;-73
2022/02/13 08:03:01;;;;;;;;;;;9.10;99.90;;;;;;5087832;28;20376;-72
2022/02/13 08:05:27;;;;;;;;;;;9.10;99.90;;;;;;5087711;28;20320;-72
2022/02/13 08:07:52;;;;;;;;;;;9.10;99.90;;;;;;5087726;28;19912;-72
2022/02/13 08:10:18;;;;;;;;;;;9.10;99.90;;;;;;5087669;28;19916;-71
2022/02/13 08:12:44;;;;;;;;;;;9.10;99.90;;;;;;5087774;28;19952;-72
2022/02/13 08:15:10;;;;;;;;;;;9.20;99.90;;;;;;5088052;28;19965;-72
2022/02/13 08:17:35;;;;;;;;;;;9.20;99.90;;;;;;5090269;28;19912;-73
2022/02/13 08:20:05;;;;;;;;;;;9.20;99.90;;;;;;5090155;28;19909;-73
2022/02/13 08:22:32;;;;;;;;;;;9.20;99.90;;;;;;5091404;28;19933;-73
2022/02/13 08:24:58;;;;;;;;;;;9.20;99.90;;;;;;5091505;28;19908;-72
2022/02/13 08:27:23;;;;;;;;;;;9.20;99.90;;;;;;5090117;28;19916;-71
2022/02/13 08:29:51;;;;;;;;;;;9.20;99.90;;;;;;5089366;28;19931;-71
2022/02/13 08:32:17;;;;;;;;;;;9.30;99.90;;;;;;5089846;28;19916;-72
2022/02/13 08:34:42;;;;;;;;;;;9.30;99.90;;;;;;5091096;28;20386;-73
2022/02/13 08:37:08;;;;;;;;;;;9.30;99.90;;;;;;5091194;28;20015;-72
2022/02/13 08:39:33;;;;;;;;;;;9.30;99.90;;;;;;5091088;28;19909;-73
2022/02/13 08:41:59;;;;;;;;;;;9.30;99.90;;;;;;5091134;28;19955;-73
2022/02/13 08:44:24;;;;;;;;;;;9.40;99.90;;;;;;5090921;28;20151;-73
2022/02/13 08:46:50;;;;;;;;;;;9.50;99.90;;;;;;5090966;28;19985;-73
2022/02/13 08:49:15;;;;;;;;;;;9.50;99.90;;;;;;5090804;28;19916;-73
2022/02/13 08:51:41;;;;;;;;;;;9.60;99.90;;;;;;5090725;28;19919;-74
2022/02/13 08:54:07;;;;;;;;;;;9.60;99.90;;;;;;5090555;28;19909;-73
2022/02/13 08:56:32;;;;;;;;;;;9.70;99.90;;;;;;5090497;28;19916;-74
2022/02/13 08:58:59;;;;;;;;;;;9.70;99.90;;;;;;5090504;28;19912;-73
2022/02/13 09:01:24;;;;;;;;;;;9.80;99.90;;;;;;5090457;28;20019;-73
2022/02/13 09:03:50;;;;;;;;;;;9.80;99.90;;;;;;5090369;28;20047;-73
2022/02/13 09:06:16;;;;;;;;;;;9.80;99.90;;;;;;5090409;28;19912;-73
2022/02/13 09:08:41;;;;;;;;;;;9.90;99.90;;;;;;5089278;28;20305;-73
2022/02/13 09:11:07;;;;;;;;;;;9.90;99.90;;;;;;5090232;28;19945;-74
2022/02/13 09:13:32;;;;;;;;;;;9.90;99.90;;;;;;5090424;28;19912;-72
2022/02/13 09:15:58;;;;;;;;;;;9.90;99.90;;;;;;5090251;28;20320;-73
2022/02/13 09:18:24;;;;;;;;;;;9.90;99.90;;;;;;5090151;28;19922;-74
2022/02/13 09:20:49;;;;;;;;;;;9.90;99.90;;;;;;5088862;28;19924;-73
2022/02/13 09:23:21;;;;;;;;;;;9.90;99.90;;;;;;5088865;28;19913;-73
2022/02/13 09:25:47;;;;;;;;;;;10.00;99.90;;;;;;5089639;28;20007;-73
2022/02/13 09:28:13;;;;;;;;;;;10.00;99.90;;;;;;5090219;28;19947;-74
2022/02/13 09:30:39;;;;;;;;;;;10.00;99.90;;;;;;5089663;28;20007;-73
2022/02/13 09:33:04;;;;;;;;;;;10.00;99.90;;;;;;5089950;28;19980;-73
2022/02/13 09:35:31;;;;;;;;;;;10.00;99.90;;;;;;5089927;28;20362;-73
2022/02/13 09:37:57;;;;;;;;;;;10.00;99.90;;;;;;5090092;28;19908;-74
2022/02/13 09:40:23;;;;;;;;;;;10.00;99.90;;;;;;5089736;28;19912;-73
2022/02/13 09:42:49;;;;;;;;;;;10.10;99.90;;;;;;5089642;28;19966;-73
2022/02/13 09:45:15;;;;;;;;;;;10.10;99.90;;;;;;5089621;28;20446;-73
2022/02/13 09:47:40;;;;;;;;;;;10.10;99.90;;;;;;5088163;28;19919;-73
2022/02/13 09:50:07;;;;;;;;;;;10.10;99.90;;;;;;5089373;28;19916;-72
2022/02/13 09:52:32;;;;;;;;;;;10.20;99.90;;;;;;5089640;28;19961;-74
2022/02/13 09:54:58;;;;;;;;;;;10.20;99.90;;;;;;5089544;28;20382;-73
2022/02/13 10:00:09;;;;;;;;;;;10.30;99.90;;;;;;5089716;28;19961;-74
2022/02/13 10:02:35;;;;;;;;;;;10.30;99.90;;;;;;5089363;28;19935;-73
2022/02/13 10:05:02;;;;;;;;;;;10.40;99.90;;;;;;5089212;28;19908;-74
2022/02/13 10:07:30;;;;;;;;;;;10.30;99.90;;;;;;5089696;28;20427;-73
2022/02/13 10:09:59;;;;;;;;;;;10.40;99.90;;;;;;5087629;28;19912;-73
2022/02/13 10:12:44;;;;;;;;;;;10.50;99.90;;;;;;5089073;28;19985;-73
2022/02/13 10:15:22;;;;;;;;;;;10.50;99.90;;;;;;5087686;28;19995;-74
2022/02/13 10:18:04;;;;;;;;;;;10.60;99.90;;;;;;5088832;28;19953;-73
2022/02/13 10:20:40;;;;;;;;;;;10.70;99.90;;;;;;5087642;28;19914;-73
2022/02/13 10:23:07;;;;;;;;;;;10.80;99.90;;;;;;5088902;28;19914;-73
2022/02/13 10:25:33;;;;;;;;;;;10.80;99.90;;;;;;5088733;28;19989;-73
2022/02/13 10:27:59;;;;;;;;;;;10.90;99.90;;;;;;5088677;28;19908;-73
2022/02/13 10:30:35;;;;;;;;;;;10.90;99.90;;;;;;5088607;28;19935;-74
2022/02/13 10:33:14;;;;;;;;;;;11.00;99.90;;;;;;5088610;28;19985;-73
2022/02/13 10:35:39;;;;;;;;;;;11.00;99.90;;;;;;5088411;28;19912;-73
2022/02/13 10:38:05;;;;;;;;;;;11.10;99.90;;;;;;5086644;28;19912;-74
2022/02/13 10:40:32;;;;;;;;;;;11.20;99.90;;;;;;5088481;28;19954;-73
2022/02/13 10:43:07;;;;;;;;;;;11.20;99.90;;;;;;5088307;28;19985;-74
2022/02/13 10:45:34;;;;;;;;;;;11.10;99.90;;;;;;5087667;28;20240;-73
2022/02/13 10:48:01;;;;;;;;;;;11.10;99.90;;;;;;5087847;28;19908;-73
2022/02/13 10:50:28;;;;;;;;;;;11.10;99.90;;;;;;5087954;28;20015;-72
2022/02/13 10:52:56;;;;;;;;;;;11.20;99.90;;;;;;5086389;28;20330;-73
2022/02/13 10:55:22;;;;;;;;;;;11.20;99.90;;;;;;5086616;28;19909;-72
2022/02/13 10:57:47;;;;;;;;;;;11.20;99.90;;;;;;5087898;28;19919;-72
2022/02/13 11:00:14;;;;;;;;;;;11.10;99.90;;;;;;5088014;28;20379;-74
2022/02/13 11:02:40;;;;;;;;;;;11.20;99.90;;;;;;5087800;28;20011;-73
2022/02/13 11:05:09;;;;;;;;;;;11.10;99.90;;;;;;5086231;28;20390;-73
2022/02/13 11:07:43;;;;;;;;;;;11.10;99.90;;;;;;5086626;28;19904;-73
2022/02/13 11:10:10;;;;;;;;;;;11.10;99.90;;;;;;5086433;28;19916;-72
2022/02/13 11:12:36;;;;;;;;;;;11.00;99.90;;;;;;5087572;28;20214;-73
2022/02/13 11:15:28;;;;;;;;;;;11.00;99.90;;;;;;5087712;28;20415;-74
2022/02/13 11:17:57;;;;;;;;;;;10.90;99.90;;;;;;5086543;28;20350;-73
2022/02/13 11:20:22;;;;;;;;;;;10.90;99.90;;;;;;5087765;28;19912;-75
2022/02/13 11:22:53;;;;;;;;;;;10.90;99.90;;;;;;5087452;28;19917;-72
2022/02/13 11:25:37;;;;;;;;;;;10.90;99.90;;;;;;5087918;28;19912;-73
2022/02/13 11:28:03;;;;;;;;;;;10.90;99.90;;;;;;5087455;28;20007;-73
2022/02/13 11:30:51;;;;;;;;;;;10.90;99.90;;;;;;5087012;28;20126;-71
2022/02/13 11:33:23;;;;;;;;;;;11.00;99.90;;;;;;5087603;28;19908;-73
2022/02/13 11:35:59;;;;;;;;;;;11.10;99.90;;;;;;5087300;28;19912;-72
2022/02/13 11:38:43;;;;;;;;;;;11.20;99.90;;;;;;5087335;28;19965;-72
2022/02/13 11:41:08;;;;;;;;;;;11.30;99.90;;;;;;5087298;28;19947;-71
2022/02/13 11:43:49;;;;;;;;;;;11.50;99.90;;;;;;5087023;28;19950;-72
2022/02/13 11:46:14;;;;;;;;;;;11.60;99.90;;;;;;5087347;28;19915;-73
2022/02/13 11:48:43;;;;;;;;;;;11.60;99.90;;;;;;5088173;28;19960;-72
2022/02/13 11:51:10;;;;;;;;;;;11.70;99.90;;;;;;5089920;28;20002;-73
2022/02/13 11:53:37;;;;;;;;;;;11.80;99.90;;;;;;5091704;28;20274;-73
2022/02/13 11:56:19;;;;;;;;;;;12.00;99.90;;;;;;5090942;28;20014;-73
2022/02/13 11:58:44;;;;;;;;;;;12.10;99.90;;;;;;5091267;28;19948;-72
2022/02/13 12:01:29;;;;;;;;;;;12.20;99.90;;;;;;5091266;28;19909;-72
2022/02/13 12:03:55;;;;;;;;;;;12.20;99.90;;;;;;5091269;28;19991;-72
2022/02/13 12:06:28;;;;;;;;;;;12.20;99.90;;;;;;5089979;28;20417;-72
2022/02/13 12:08:58;;;;;;;;;;;12.20;99.90;;;;;;5091104;28;19908;-72
2022/02/13 12:11:34;;;;;;;;;;;12.20;99.90;;;;;;5090594;28;20010;-75
2022/02/13 12:14:20;;;;;;;;;;;12.20;99.90;;;;;;5090521;28;19919;-74
2022/02/13 12:16:49;;;;;;;;;;;12.30;99.90;;;;;;5089221;28;20370;-73
2022/02/13 12:19:24;;;;;;;;;;;12.50;99.90;;;;;;5091337;28;20004;-74
2022/02/13 12:22:02;;;;;;;;;;;12.70;99.90;;;;;;5090627;28;19908;-74
2022/02/13 12:24:27;;;;;;;;;;;13.00;99.90;;;;;;5090990;28;19908;-73
2022/02/13 12:27:00;;;;;;;;;;;13.50;99.90;;;;;;5090395;28;19935;-73
2022/02/13 12:29:26;;;;;;;;;;;13.90;99.90;;;;;;5090375;28;19926;-75
2022/02/13 12:32:03;;;;;;;;;;;14.30;99.90;;;;;;5090169;28;19924;-74
2022/02/13 12:34:29;;;;;;;;;;;14.50;99.90;;;;;;5090152;28;19908;-74
2022/02/13 12:36:55;;;;;;;;;;;14.60;99.90;;;;;;5090229;28;20002;-74
2022/02/13 12:39:26;;;;;;;;;;;14.60;99.90;;;;;;5090506;28;19919;-73
2022/02/13 12:41:52;;;;;;;;;;;14.50;99.90;;;;;;5090035;28;19923;-73
2022/02/13 12:44:17;;;;;;;;;;;14.40;99.90;;;;;;5090334;28;20282;-74
2022/02/13 12:46:43;;;;;;;;;;;14.30;99.90;;;;;;5088686;28;20275;-73
2022/02/13 12:49:10;;;;;;;;;;;14.50;99.90;;;;;;5090153;28;19912;-73
2022/02/13 12:51:35;;;;;;;;;;;14.70;99.90;;;;;;5089888;28;19963;-74
2022/02/13 12:54:01;;;;;;;;;;;14.90;99.90;;;;;;5089782;28;19947;-74
2022/02/13 12:56:26;;;;;;;;;;;15.00;99.90;;;;;;5088032;28;19912;-74
2022/02/13 12:58:53;;;;;;;;;;;15.00;99.90;;;;;;5089514;28;20475;-73
2022/02/13 13:01:32;;;;;;;;;;;14.80;99.90;;;;;;5088952;28;19912;-74
2022/02/13 13:03:57;;;;;;;;;;;14.60;99.90;;;;;;5089829;28;19947;-74
2022/02/13 13:06:27;;;;;;;;;;;14.40;99.90;;;;;;5089827;28;20347;-66
2022/02/13 13:08:57;;;;;;;;;;;14.30;99.90;;;;;;5089790;28;19956;-74
2022/02/13 13:11:30;;;;;;;;;;;14.40;99.90;;;;;;5089848;28;19920;-72
2022/02/13 13:14:05;;;;;;;;;;;14.40;99.90;;;;;;5089719;28;19912;-73
2022/02/13 13:16:31;;;;;;;;;;;14.30;99.90;;;;;;5089606;28;19951;-74
2022/02/13 13:18:58;;;;;;;;;;;14.10;99.90;;;;;;5089545;28;19951;-74
2022/02/13 13:21:38;;;;;;;;;;;14.00;99.90;;;;;;5089599;28;19912;-72
2022/02/13 13:24:08;;;;;;;;;;;13.70;99.90;;;;;;5088224;28;20015;-74
2022/02/13 13:26:33;;;;;;;;;;;13.40;99.90;;;;;;5089152;28;19916;-73
2022/02/13 13:29:16;;;;;;;;;;;13.30;99.90;;;;;;5089590;28;20531;-73
2022/02/13 13:31:52;;;;;;;;;;;13.20;99.90;;;;;;5089203;28;20375;-74
2022/02/13 13:34:18;;;;;;;;;;;13.20;99.90;;;;;;5089415;28;20277;-74
2022/02/13 13:36:44;;;;;;;;;;;13.20;99.90;;;;;;5087912;28;20310;-74
2022/02/13 13:39:22;;;;;;;;;;;13.10;99.90;;;;;;5089240;28;19924;-74
2022/02/13 13:41:48;;;;;;;;;;;13.00;99.90;;;;;;5089193;28;19916;-74
2022/02/13 13:44:18;;;;;;;;;;;13.00;99.90;;;;;;5088711;28;20011;-73
2022/02/13 13:46:44;;;;;;;;;;;12.90;99.90;;;;;;5088679;28;19958;-73
2022/02/13 13:49:09;;;;;;;;;;;12.80;99.90;;;;;;5087631;28;19916;-72
2022/02/13 13:51:35;;;;;;;;;;;12.60;99.90;;;;;;5088728;28;19915;-73
2022/02/13 13:54:00;;;;;;;;;;;12.50;99.90;;;;;;5089024;28;20122;-73
2022/02/13 13:56:26;;;;;;;;;;;12.40;99.90;;;;;;5088719;28;19908;-73
2022/02/13 13:58:52;;;;;;;;;;;12.30;99.90;;;;;;5088879;28;19973;-73
2022/02/13 14:01:17;;;;;;;;;;;12.20;99.90;;;;;;5086657;28;20003;-73
2022/02/13 14:03:43;;;;;;;;;;;12.10;99.90;;;;;;5087943;28;19916;-74
2022/02/13 14:06:08;;;;;;;;;;;12.00;99.90;;;;;;5088504;28;20084;-73
2022/02/13 14:08:34;;;;;;;;;;;11.90;99.90;;;;;;5088564;28;19912;-74
2022/02/13 14:11:00;;;;;;;;;;;11.90;99.90;;;;;;5088100;28;19966;-73
2022/02/13 14:13:26;;;;;;;;;;;12.00;99.90;;;;;;5087469;28;20464;-73
2022/02/13 14:15:51;;;;;;;;;;;12.10;99.90;;;;;;5088806;28;20046;-73
2022/02/13 14:18:17;;;;;;;;;;;12.20;99.90;;;;;;5088628;28;19912;-73
2022/02/13 14:20:42;;;;;;;;;;;12.20;99.90;;;;;;5088670;28;20015;-74
2022/02/13 14:23:08;;;;;;;;;;;12.30;99.90;;;;;;5086851;28;20239;-73
2022/02/13 14:25:34;;;;;;;;;;;12.40;99.90;;;;;;5088070;28;19935;-73
2022/02/13 14:27:59;;;;;;;;;;;12.40;99.90;;;;;;5088403;28;19919;-74